MET'MAP v2.0
soon released !

Expected late october,
this new version will be
more efficient, smarter,
and hosted on a brand new
server x3 powerfull...
...and still free !


Not compatible ?
Try the mobile version !

LOG IN : | Subscribe | Disclaimer | Who is Orbifly ? |
ICAO code :

TAF - LKKB Kbely Air Base - 25 May 2020 05:11 UTC - Data Source NOAA   


- Airport Elevation : 939 ft
- No reported NOTAMs.


LKKB - Kbely Air Base

Latest METAR recorded : 2015/08/11 07:00 LKKB 110700Z 22003KT 160V260 CAVOK 26/10 Q1015 NOSIG
TAF TAF LKKB
Valid from the 25 at 00:00 until the 26 at 00:00 UTC


242300Z 2500/2600 27010KT CAVOK
TEMPO 2500/2518 6000 SHRA BKN022
TEMPO 2509/2518 28012G22KT
PROB30
TEMPO 2510/2514 32016G26KT BKN020TCU

Source NOAA


MET'MAP, your aeronautical weather chart ! - Copyright ORBIFLY December 2007

Programming & Development : Alexandra Zaïnal
Co-Developer : Marc-Olivier Méhu
Technical & hardware support : Manuel Goepfert
Concept & Financing : Baudouin d'Aumeries